SBIP Airport Information

Runway Information
Runway 5 Length 6575 ft width 148 ft
Elevation 0 ft Threshold 0 ft Heading 0
Runway 23 Length 6575 ft Width 148 ft
Elevation 0 ft Threshold 0 ft Heading 0
Airport Frequencies
Type AFIS Name RDO Frequency 130 MHZ
Airport Navaids
Type NDB Name Usiminas Frequency 162 KHZ
Airport Weather Information & NOTAM
ADDS - METARS form results

(0227 UTC 19 May 2022)
Data provider http://aviationweather.gov/metar/data/
 
METAR text: SBIP 190200Z AUTO VRB02KT CAVOK 08/06 Q1013
Conditions at: SBIP (USIMINAS/PARAISO, BR) observed 0200 UTC 19 May 2022
Temperature: 8.0°C (46°F)
Dewpoint: 6.0°C (43°F) [RH = 87%]
Pressure (altimeter): 29.91 inches Hg (1013.0 mb)
Winds: variable direction winds at 2 MPH (2 knots; 1.0 m/s)
Visibility: 6 or more miles (10+ km)
Ceiling: ceiling and visibility are OK
Clouds: unknown
Weather: no significant weather observed at this time